sensor_id;sensor_type;location;lat;lon;timestamp;temperature;humidity
75615;DHT22;64199;48.578;-4.520;2023-10-09T00:00:15;23.60;70.70
75615;DHT22;64199;48.578;-4.520;2023-10-09T00:03:00;23.60;70.80
75615;DHT22;64199;48.578;-4.520;2023-10-09T00:05:27;23.60;70.80
75615;DHT22;64199;48.578;-4.520;2023-10-09T00:08:05;23.60;70.80
75615;DHT22;64199;48.578;-4.520;2023-10-09T00:10:31;23.60;70.80
75615;DHT22;64199;48.578;-4.520;2023-10-09T00:13:15;23.60;70.80
75615;DHT22;64199;48.578;-4.520;2023-10-09T00:15:41;23.50;70.80
75615;DHT22;64199;48.578;-4.520;2023-10-09T00:18:08;23.50;70.80
75615;DHT22;64199;48.578;-4.520;2023-10-09T00:20:40;23.50;70.80
75615;DHT22;64199;48.578;-4.520;2023-10-09T00:23:09;23.50;70.80
75615;DHT22;64199;48.578;-4.520;2023-10-09T00:25:50;23.50;70.80
75615;DHT22;64199;48.578;-4.520;2023-10-09T00:28:35;23.50;70.80
75615;DHT22;64199;48.578;-4.520;2023-10-09T00:31:04;23.50;71.60
75615;DHT22;64199;48.578;-4.520;2023-10-09T00:33:32;23.50;70.80
75615;DHT22;64199;48.578;-4.520;2023-10-09T00:36:03;23.50;70.80
75615;DHT22;64199;48.578;-4.520;2023-10-09T00:38:36;23.50;70.80
75615;DHT22;64199;48.578;-4.520;2023-10-09T00:41:05;23.50;70.80
75615;DHT22;64199;48.578;-4.520;2023-10-09T00:43:34;23.50;70.80
75615;DHT22;64199;48.578;-4.520;2023-10-09T00:46:04;23.50;70.80
75615;DHT22;64199;48.578;-4.520;2023-10-09T00:48:34;23.50;70.80
75615;DHT22;64199;48.578;-4.520;2023-10-09T00:51:07;23.50;70.80
75615;DHT22;64199;48.578;-4.520;2023-10-09T00:53:54;23.50;70.80
75615;DHT22;64199;48.578;-4.520;2023-10-09T00:56:23;23.50;70.80
75615;DHT22;64199;48.578;-4.520;2023-10-09T00:59:01;23.50;70.80
75615;DHT22;64199;48.578;-4.520;2023-10-09T01:01:56;23.50;70.80
75615;DHT22;64199;48.578;-4.520;2023-10-09T01:04:24;23.50;70.80
75615;DHT22;64199;48.578;-4.520;2023-10-09T01:06:52;23.50;70.80
75615;DHT22;64199;48.578;-4.520;2023-10-09T01:09:38;23.50;70.70
75615;DHT22;64199;48.578;-4.520;2023-10-09T01:12:08;23.50;70.70
75615;DHT22;64199;48.578;-4.520;2023-10-09T01:14:43;23.50;70.70
75615;DHT22;64199;48.578;-4.520;2023-10-09T01:17:09;23.50;70.80
75615;DHT22;64199;48.578;-4.520;2023-10-09T01:19:36;23.40;70.70
75615;DHT22;64199;48.578;-4.520;2023-10-09T01:22:02;23.40;70.60
75615;DHT22;64199;48.578;-4.520;2023-10-09T01:24:38;23.40;70.60
75615;DHT22;64199;48.578;-4.520;2023-10-09T01:27:06;23.50;70.70
75615;DHT22;64199;48.578;-4.520;2023-10-09T01:29:40;23.50;70.60
75615;DHT22;64199;48.578;-4.520;2023-10-09T01:32:08;23.40;70.60
75615;DHT22;64199;48.578;-4.520;2023-10-09T01:34:42;23.40;70.60
75615;DHT22;64199;48.578;-4.520;2023-10-09T01:37:20;23.50;70.60
75615;DHT22;64199;48.578;-4.520;2023-10-09T01:39:56;23.40;70.60
75615;DHT22;64199;48.578;-4.520;2023-10-09T01:42:41;23.40;70.50
75615;DHT22;64199;48.578;-4.520;2023-10-09T01:45:13;23.40;70.50
75615;DHT22;64199;48.578;-4.520;2023-10-09T01:47:53;23.40;70.50
75615;DHT22;64199;48.578;-4.520;2023-10-09T01:50:22;23.40;70.50
75615;DHT22;64199;48.578;-4.520;2023-10-09T01:52:56;23.40;70.50
75615;DHT22;64199;48.578;-4.520;2023-10-09T01:55:25;23.40;70.50
75615;DHT22;64199;48.578;-4.520;2023-10-09T01:58:06;23.40;70.50
75615;DHT22;64199;48.578;-4.520;2023-10-09T02:00:42;23.40;70.40
75615;DHT22;64199;48.578;-4.520;2023-10-09T02:03:15;23.40;70.50
75615;DHT22;64199;48.578;-4.520;2023-10-09T02:05:44;23.40;70.40
75615;DHT22;64199;48.578;-4.520;2023-10-09T02:08:10;23.40;70.40
75615;DHT22;64199;48.578;-4.520;2023-10-09T02:10:37;23.40;70.50
75615;DHT22;64199;48.578;-4.520;2023-10-09T02:13:10;23.40;70.40
75615;DHT22;64199;48.578;-4.520;2023-10-09T02:15:37;23.40;70.40
75615;DHT22;64199;48.578;-4.520;2023-10-09T02:18:19;23.40;70.40
75615;DHT22;64199;48.578;-4.520;2023-10-09T02:20:53;23.40;70.40
75615;DHT22;64199;48.578;-4.520;2023-10-09T02:23:39;23.40;70.40
75615;DHT22;64199;48.578;-4.520;2023-10-09T02:26:05;23.40;70.30
75615;DHT22;64199;48.578;-4.520;2023-10-09T02:28:35;23.30;70.30
75615;DHT22;64199;48.578;-4.520;2023-10-09T02:31:12;23.30;70.30
75615;DHT22;64199;48.578;-4.520;2023-10-09T02:33:39;23.30;70.20
75615;DHT22;64199;48.578;-4.520;2023-10-09T02:36:06;23.30;70.20
75615;DHT22;64199;48.578;-4.520;2023-10-09T02:38:33;23.30;70.20
75615;DHT22;64199;48.578;-4.520;2023-10-09T02:41:06;23.30;70.10
75615;DHT22;64199;48.578;-4.520;2023-10-09T02:43:33;23.30;70.20
75615;DHT22;64199;48.578;-4.520;2023-10-09T02:46:06;23.30;70.20
75615;DHT22;64199;48.578;-4.520;2023-10-09T02:48:49;23.30;70.20
75615;DHT22;64199;48.578;-4.520;2023-10-09T02:51:22;23.30;70.20
75615;DHT22;64199;48.578;-4.520;2023-10-09T02:53:54;23.20;70.10
75615;DHT22;64199;48.578;-4.520;2023-10-09T02:56:22;23.20;70.20
75615;DHT22;64199;48.578;-4.520;2023-10-09T02:59:04;23.20;70.10
75615;DHT22;64199;48.578;-4.520;2023-10-09T03:01:35;23.20;70.20
75615;DHT22;64199;48.578;-4.520;2023-10-09T03:04:03;23.20;70.20
75615;DHT22;64199;48.578;-4.520;2023-10-09T03:06:31;23.20;70.20
75615;DHT22;64199;48.578;-4.520;2023-10-09T03:09:01;23.20;70.20
75615;DHT22;64199;48.578;-4.520;2023-10-09T03:11:43;23.20;70.30
75615;DHT22;64199;48.578;-4.520;2023-10-09T03:14:09;23.20;70.30
75615;DHT22;64199;48.578;-4.520;2023-10-09T03:16:36;23.10;70.30
75615;DHT22;64199;48.578;-4.520;2023-10-09T03:19:02;23.10;70.30
75615;DHT22;64199;48.578;-4.520;2023-10-09T03:21:28;23.10;70.30
75615;DHT22;64199;48.578;-4.520;2023-10-09T03:23:54;23.10;70.40
75615;DHT22;64199;48.578;-4.520;2023-10-09T03:26:22;23.10;70.20
75615;DHT22;64199;48.578;-4.520;2023-10-09T03:28:51;23.10;70.20
75615;DHT22;64199;48.578;-4.520;2023-10-09T03:31:20;23.10;70.20
75615;DHT22;64199;48.578;-4.520;2023-10-09T03:33:48;23.10;70.20
75615;DHT22;64199;48.578;-4.520;2023-10-09T03:36:14;23.10;70.20
75615;DHT22;64199;48.578;-4.520;2023-10-09T03:38:42;23.10;70.20
75615;DHT22;64199;48.578;-4.520;2023-10-09T03:41:08;22.90;70.10
75615;DHT22;64199;48.578;-4.520;2023-10-09T03:43:38;23.10;70.20
75615;DHT22;64199;48.578;-4.520;2023-10-09T03:46:10;23.00;70.20
75615;DHT22;64199;48.578;-4.520;2023-10-09T03:48:53;23.00;70.30
75615;DHT22;64199;48.578;-4.520;2023-10-09T03:51:22;23.00;70.40
75615;DHT22;64199;48.578;-4.520;2023-10-09T03:53:49;23.00;70.50
75615;DHT22;64199;48.578;-4.520;2023-10-09T03:56:16;23.00;70.70
75615;DHT22;64199;48.578;-4.520;2023-10-09T03:58:47;23.00;70.70
75615;DHT22;64199;48.578;-4.520;2023-10-09T04:01:16;23.00;70.80
75615;DHT22;64199;48.578;-4.520;2023-10-09T04:04:03;23.00;70.90
75615;DHT22;64199;48.578;-4.520;2023-10-09T04:06:30;23.00;71.00
75615;DHT22;64199;48.578;-4.520;2023-10-09T04:09:01;23.00;71.10
75615;DHT22;64199;48.578;-4.520;2023-10-09T04:11:39;23.00;71.10
75615;DHT22;64199;48.578;-4.520;2023-10-09T04:14:15;22.90;71.20
75615;DHT22;64199;48.578;-4.520;2023-10-09T04:16:51;22.90;71.30
75615;DHT22;64199;48.578;-4.520;2023-10-09T04:19:17;22.90;71.40
75615;DHT22;64199;48.578;-4.520;2023-10-09T04:21:48;22.90;71.40
75615;DHT22;64199;48.578;-4.520;2023-10-09T04:24:14;22.90;71.50
75615;DHT22;64199;48.578;-4.520;2023-10-09T04:26:41;22.90;71.50
75615;DHT22;64199;48.578;-4.520;2023-10-09T04:29:14;22.90;71.60
75615;DHT22;64199;48.578;-4.520;2023-10-09T04:31:56;22.90;71.60
75615;DHT22;64199;48.578;-4.520;2023-10-09T04:34:23;22.90;71.60
75615;DHT22;64199;48.578;-4.520;2023-10-09T04:36:56;22.90;71.60
75615;DHT22;64199;48.578;-4.520;2023-10-09T04:39:42;22.90;71.60
75615;DHT22;64199;48.578;-4.520;2023-10-09T04:42:15;22.90;71.60
75615;DHT22;64199;48.578;-4.520;2023-10-09T04:44:51;22.90;71.60
75615;DHT22;64199;48.578;-4.520;2023-10-09T04:47:45;22.80;71.60
75615;DHT22;64199;48.578;-4.520;2023-10-09T04:50:24;22.90;71.70
75615;DHT22;64199;48.578;-4.520;2023-10-09T04:52:56;22.90;71.70
75615;DHT22;64199;48.578;-4.520;2023-10-09T04:55:30;22.90;71.70
75615;DHT22;64199;48.578;-4.520;2023-10-09T04:58:04;22.80;71.70
75615;DHT22;64199;48.578;-4.520;2023-10-09T05:00:32;22.80;71.60
75615;DHT22;64199;48.578;-4.520;2023-10-09T05:03:00;22.80;71.50
75615;DHT22;64199;48.578;-4.520;2023-10-09T05:05:39;22.80;71.50
75615;DHT22;64199;48.578;-4.520;2023-10-09T05:08:12;22.80;71.50
75615;DHT22;64199;48.578;-4.520;2023-10-09T05:10:58;22.80;71.50
75615;DHT22;64199;48.578;-4.520;2023-10-09T05:13:35;22.80;71.50
75615;DHT22;64199;48.578;-4.520;2023-10-09T05:16:11;22.80;71.50
75615;DHT22;64199;48.578;-4.520;2023-10-09T05:18:58;22.70;71.40
75615;DHT22;64199;48.578;-4.520;2023-10-09T05:21:53;22.70;71.40
75615;DHT22;64199;48.578;-4.520;2023-10-09T05:24:24;22.70;71.40
75615;DHT22;64199;48.578;-4.520;2023-10-09T05:26:52;22.70;71.50
75615;DHT22;64199;48.578;-4.520;2023-10-09T05:29:25;22.70;71.40
75615;DHT22;64199;48.578;-4.520;2023-10-09T05:32:13;22.70;71.40
75615;DHT22;64199;48.578;-4.520;2023-10-09T05:34:44;22.70;71.40
75615;DHT22;64199;48.578;-4.520;2023-10-09T05:37:32;22.70;71.50
75615;DHT22;64199;48.578;-4.520;2023-10-09T05:40:00;22.70;71.40
75615;DHT22;64199;48.578;-4.520;2023-10-09T05:42:34;22.70;71.50
75615;DHT22;64199;48.578;-4.520;2023-10-09T05:45:06;22.70;71.40
75615;DHT22;64199;48.578;-4.520;2023-10-09T05:47:48;22.70;71.50
75615;DHT22;64199;48.578;-4.520;2023-10-09T05:50:25;22.70;71.40
75615;DHT22;64199;48.578;-4.520;2023-10-09T05:52:58;22.60;71.40
75615;DHT22;64199;48.578;-4.520;2023-10-09T05:55:27;22.60;71.40
75615;DHT22;64199;48.578;-4.520;2023-10-09T05:58:13;22.70;71.50
75615;DHT22;64199;48.578;-4.520;2023-10-09T06:00:57;22.60;71.40
75615;DHT22;64199;48.578;-4.520;2023-10-09T06:03:32;22.60;71.40
75615;DHT22;64199;48.578;-4.520;2023-10-09T06:06:16;22.60;71.40
75615;DHT22;64199;48.578;-4.520;2023-10-09T06:09:08;22.60;71.40
75615;DHT22;64199;48.578;-4.520;2023-10-09T06:14:12;22.60;71.40
75615;DHT22;64199;48.578;-4.520;2023-10-09T06:16:39;22.60;71.40
75615;DHT22;64199;48.578;-4.520;2023-10-09T06:19:12;22.50;71.30
75615;DHT22;64199;48.578;-4.520;2023-10-09T06:21:52;22.60;71.40
75615;DHT22;64199;48.578;-4.520;2023-10-09T06:24:23;22.50;71.30
75615;DHT22;64199;48.578;-4.520;2023-10-09T06:26:50;22.60;71.40
75615;DHT22;64199;48.578;-4.520;2023-10-09T06:29:31;22.50;71.30
75615;DHT22;64199;48.578;-4.520;2023-10-09T06:32:16;22.50;71.40
75615;DHT22;64199;48.578;-4.520;2023-10-09T06:34:57;22.50;71.40
75615;DHT22;64199;48.578;-4.520;2023-10-09T06:37:46;22.50;71.50
75615;DHT22;64199;48.578;-4.520;2023-10-09T06:40:28;22.50;71.50
75615;DHT22;64199;48.578;-4.520;2023-10-09T06:43:13;22.50;71.60
75615;DHT22;64199;48.578;-4.520;2023-10-09T06:45:45;22.50;71.60
75615;DHT22;64199;48.578;-4.520;2023-10-09T06:48:12;22.50;71.50
75615;DHT22;64199;48.578;-4.520;2023-10-09T06:50:57;22.50;71.50
75615;DHT22;64199;48.578;-4.520;2023-10-09T06:53:33;22.50;71.50
75615;DHT22;64199;48.578;-4.520;2023-10-09T06:56:27;22.50;71.50
75615;DHT22;64199;48.578;-4.520;2023-10-09T07:01:30;22.50;71.50
75615;DHT22;64199;48.578;-4.520;2023-10-09T07:03:56;22.40;71.50
75615;DHT22;64199;48.578;-4.520;2023-10-09T07:06:36;22.50;71.60
75615;DHT22;64199;48.578;-4.520;2023-10-09T07:09:02;22.50;71.60
75615;DHT22;64199;48.578;-4.520;2023-10-09T07:11:38;22.40;71.60
75615;DHT22;64199;48.578;-4.520;2023-10-09T07:14:08;22.50;71.60
75615;DHT22;64199;48.578;-4.520;2023-10-09T07:16:38;22.40;71.50
75615;DHT22;64199;48.578;-4.520;2023-10-09T07:19:07;22.40;71.50
75615;DHT22;64199;48.578;-4.520;2023-10-09T07:21:50;22.50;71.40
75615;DHT22;64199;48.578;-4.520;2023-10-09T07:24:22;22.40;71.30
75615;DHT22;64199;48.578;-4.520;2023-10-09T07:27:04;22.40;71.30
75615;DHT22;64199;48.578;-4.520;2023-10-09T07:29:35;22.40;71.40
75615;DHT22;64199;48.578;-4.520;2023-10-09T07:32:14;22.40;71.30
75615;DHT22;64199;48.578;-4.520;2023-10-09T07:34:46;22.40;71.40
75615;DHT22;64199;48.578;-4.520;2023-10-09T07:37:25;22.40;71.40
75615;DHT22;64199;48.578;-4.520;2023-10-09T07:39:56;22.40;71.40
75615;DHT22;64199;48.578;-4.520;2023-10-09T07:42:23;22.40;71.40
75615;DHT22;64199;48.578;-4.520;2023-10-09T07:45:00;22.40;71.40
75615;DHT22;64199;48.578;-4.520;2023-10-09T07:47:37;22.40;72.20
75615;DHT22;64199;48.578;-4.520;2023-10-09T07:50:27;22.40;71.50
75615;DHT22;64199;48.578;-4.520;2023-10-09T07:53:06;22.40;71.40
75615;DHT22;64199;48.578;-4.520;2023-10-09T07:55:54;22.40;71.40
75615;DHT22;64199;48.578;-4.520;2023-10-09T07:58:27;22.40;71.30
75615;DHT22;64199;48.578;-4.520;2023-10-09T08:00:55;22.30;71.20
75615;DHT22;64199;48.578;-4.520;2023-10-09T08:03:24;22.30;71.20
75615;DHT22;64199;48.578;-4.520;2023-10-09T08:05:51;22.30;71.20
75615;DHT22;64199;48.578;-4.520;2023-10-09T08:08:19;22.30;71.20
75615;DHT22;64199;48.578;-4.520;2023-10-09T08:10:54;22.30;71.20
75615;DHT22;64199;48.578;-4.520;2023-10-09T08:13:38;22.30;71.20
75615;DHT22;64199;48.578;-4.520;2023-10-09T08:16:23;22.30;71.20
75615;DHT22;64199;48.578;-4.520;2023-10-09T08:18:50;22.30;71.10
75615;DHT22;64199;48.578;-4.520;2023-10-09T08:21:19;22.30;71.10
75615;DHT22;64199;48.578;-4.520;2023-10-09T08:24:07;22.30;71.20
75615;DHT22;64199;48.578;-4.520;2023-10-09T08:26:54;22.30;71.20
75615;DHT22;64199;48.578;-4.520;2023-10-09T08:29:39;22.30;71.20
75615;DHT22;64199;48.578;-4.520;2023-10-09T08:32:12;22.30;71.10
75615;DHT22;64199;48.578;-4.520;2023-10-09T08:34:44;22.20;71.00
75615;DHT22;64199;48.578;-4.520;2023-10-09T08:37:19;22.20;71.00
75615;DHT22;64199;48.578;-4.520;2023-10-09T08:39:46;22.20;71.00
75615;DHT22;64199;48.578;-4.520;2023-10-09T08:42:15;22.20;70.90
75615;DHT22;64199;48.578;-4.520;2023-10-09T08:44:41;22.20;70.90
75615;DHT22;64199;48.578;-4.520;2023-10-09T08:47:09;22.20;70.90
75615;DHT22;64199;48.578;-4.520;2023-10-09T08:49:36;22.20;70.80
75615;DHT22;64199;48.578;-4.520;2023-10-09T08:52:02;22.10;70.80
75615;DHT22;64199;48.578;-4.520;2023-10-09T08:54:30;22.20;70.80
75615;DHT22;64199;48.578;-4.520;2023-10-09T08:56:58;22.20;70.80
75615;DHT22;64199;48.578;-4.520;2023-10-09T08:59:24;22.20;70.80
75615;DHT22;64199;48.578;-4.520;2023-10-09T09:01:53;22.20;70.80
75615;DHT22;64199;48.578;-4.520;2023-10-09T09:04:38;22.10;70.70
75615;DHT22;64199;48.578;-4.520;2023-10-09T09:07:21;22.10;70.80
75615;DHT22;64199;48.578;-4.520;2023-10-09T09:09:57;22.10;70.70
75615;DHT22;64199;48.578;-4.520;2023-10-09T09:12:23;22.10;70.70
75615;DHT22;64199;48.578;-4.520;2023-10-09T09:14:49;22.10;70.70
75615;DHT22;64199;48.578;-4.520;2023-10-09T09:17:22;22.10;70.80
75615;DHT22;64199;48.578;-4.520;2023-10-09T09:19:49;22.10;70.80
75615;DHT22;64199;48.578;-4.520;2023-10-09T09:22:15;22.10;70.80
75615;DHT22;64199;48.578;-4.520;2023-10-09T09:24:57;22.10;70.80
75615;DHT22;64199;48.578;-4.520;2023-10-09T09:27:44;22.10;70.80
75615;DHT22;64199;48.578;-4.520;2023-10-09T09:30:27;22.00;70.70
75615;DHT22;64199;48.578;-4.520;2023-10-09T09:33:19;22.00;70.80
75615;DHT22;64199;48.578;-4.520;2023-10-09T09:36:06;22.00;70.70
75615;DHT22;64199;48.578;-4.520;2023-10-09T09:38:35;22.00;70.70
75615;DHT22;64199;48.578;-4.520;2023-10-09T09:41:08;22.00;70.80
75615;DHT22;64199;48.578;-4.520;2023-10-09T09:43:36;22.00;70.80
75615;DHT22;64199;48.578;-4.520;2023-10-09T09:46:07;22.00;70.80
75615;DHT22;64199;48.578;-4.520;2023-10-09T09:48:37;22.00;70.80
75615;DHT22;64199;48.578;-4.520;2023-10-09T09:51:05;22.00;70.80
75615;DHT22;64199;48.578;-4.520;2023-10-09T09:53:34;22.00;70.80
75615;DHT22;64199;48.578;-4.520;2023-10-09T09:56:01;22.00;70.90
75615;DHT22;64199;48.578;-4.520;2023-10-09T09:58:29;22.00;71.00
75615;DHT22;64199;48.578;-4.520;2023-10-09T10:01:12;22.00;71.80
75615;DHT22;64199;48.578;-4.520;2023-10-09T10:03:50;22.00;71.00
75615;DHT22;64199;48.578;-4.520;2023-10-09T10:06:19;22.00;71.00
75615;DHT22;64199;48.578;-4.520;2023-10-09T10:08:48;22.00;71.00
75615;DHT22;64199;48.578;-4.520;2023-10-09T10:14:08;21.90;71.20
75615;DHT22;64199;48.578;-4.520;2023-10-09T10:19:32;21.90;71.30
75615;DHT22;64199;48.578;-4.520;2023-10-09T10:22:27;21.90;71.20
75615;DHT22;64199;48.578;-4.520;2023-10-09T10:24:54;21.90;71.30
75615;DHT22;64199;48.578;-4.520;2023-10-09T10:27:21;21.90;71.30
75615;DHT22;64199;48.578;-4.520;2023-10-09T10:35:21;21.90;71.40
75615;DHT22;64199;48.578;-4.520;2023-10-09T10:38:00;22.00;71.50
75615;DHT22;64199;48.578;-4.520;2023-10-09T10:40:40;21.90;71.60
75615;DHT22;64199;48.578;-4.520;2023-10-09T10:43:18;22.00;71.60
75615;DHT22;64199;48.578;-4.520;2023-10-09T10:46:07;22.00;71.60
75615;DHT22;64199;48.578;-4.520;2023-10-09T10:48:52;22.00;71.60
75615;DHT22;64199;48.578;-4.520;2023-10-09T10:51:29;22.00;71.70
75615;DHT22;64199;48.578;-4.520;2023-10-09T10:54:07;22.00;71.70
75615;DHT22;64199;48.578;-4.520;2023-10-09T10:57:02;22.00;71.70
75615;DHT22;64199;48.578;-4.520;2023-10-09T10:59:41;22.00;71.80
75615;DHT22;64199;48.578;-4.520;2023-10-09T11:02:10;22.00;71.70
75615;DHT22;64199;48.578;-4.520;2023-10-09T11:04:36;22.00;71.70
75615;DHT22;64199;48.578;-4.520;2023-10-09T11:07:09;22.00;71.70
75615;DHT22;64199;48.578;-4.520;2023-10-09T11:09:54;22.00;71.70
75615;DHT22;64199;48.578;-4.520;2023-10-09T11:12:27;22.00;71.70
75615;DHT22;64199;48.578;-4.520;2023-10-09T11:15:14;22.00;71.70
75615;DHT22;64199;48.578;-4.520;2023-10-09T11:18:00;22.00;71.70
75615;DHT22;64199;48.578;-4.520;2023-10-09T11:20:43;22.10;71.90
75615;DHT22;64199;48.578;-4.520;2023-10-09T11:23:22;22.10;71.90
75615;DHT22;64199;48.578;-4.520;2023-10-09T11:26:00;22.10;71.90
75615;DHT22;64199;48.578;-4.520;2023-10-09T11:28:45;22.10;71.90
75615;DHT22;64199;48.578;-4.520;2023-10-09T11:31:24;22.00;71.80
75615;DHT22;64199;48.578;-4.520;2023-10-09T11:33:51;22.10;71.90
75615;DHT22;64199;48.578;-4.520;2023-10-09T11:36:21;22.00;71.90
75615;DHT22;64199;48.578;-4.520;2023-10-09T11:39:00;22.00;71.90
75615;DHT22;64199;48.578;-4.520;2023-10-09T11:41:45;22.10;71.90
75615;DHT22;64199;48.578;-4.520;2023-10-09T11:44:15;22.10;71.90
75615;DHT22;64199;48.578;-4.520;2023-10-09T11:47:00;22.10;71.90
75615;DHT22;64199;48.578;-4.520;2023-10-09T11:50:10;22.10;71.90
75615;DHT22;64199;48.578;-4.520;2023-10-09T11:52:56;22.10;71.90
75615;DHT22;64199;48.578;-4.520;2023-10-09T11:55:37;22.10;71.90
75615;DHT22;64199;48.578;-4.520;2023-10-09T11:58:04;22.20;72.00
75615;DHT22;64199;48.578;-4.520;2023-10-09T12:00:31;22.10;71.90
75615;DHT22;64199;48.578;-4.520;2023-10-09T12:03:10;22.10;71.80
75615;DHT22;64199;48.578;-4.520;2023-10-09T12:05:36;22.20;71.90
75615;DHT22;64199;48.578;-4.520;2023-10-09T12:08:03;22.20;71.90
75615;DHT22;64199;48.578;-4.520;2023-10-09T12:10:34;22.20;71.80
75615;DHT22;64199;48.578;-4.520;2023-10-09T12:13:05;22.20;71.80
75615;DHT22;64199;48.578;-4.520;2023-10-09T12:15:32;22.20;71.80
75615;DHT22;64199;48.578;-4.520;2023-10-09T12:18:07;22.20;71.80
75615;DHT22;64199;48.578;-4.520;2023-10-09T12:20:43;22.20;71.80
75615;DHT22;64199;48.578;-4.520;2023-10-09T12:23:22;22.20;72.10
75615;DHT22;64199;48.578;-4.520;2023-10-09T12:25:49;22.30;72.00
75615;DHT22;64199;48.578;-4.520;2023-10-09T12:28:15;22.30;71.80
75615;DHT22;64199;48.578;-4.520;2023-10-09T12:30:46;22.30;71.80
75615;DHT22;64199;48.578;-4.520;2023-10-09T12:33:17;22.30;71.80
75615;DHT22;64199;48.578;-4.520;2023-10-09T12:35:43;22.30;71.80
75615;DHT22;64199;48.578;-4.520;2023-10-09T12:38:13;22.30;71.80
75615;DHT22;64199;48.578;-4.520;2023-10-09T12:40:44;22.30;71.80
75615;DHT22;64199;48.578;-4.520;2023-10-09T12:43:17;22.40;71.90
75615;DHT22;64199;48.578;-4.520;2023-10-09T12:45:45;22.40;71.90
75615;DHT22;64199;48.578;-4.520;2023-10-09T12:48:12;22.40;71.80
75615;DHT22;64199;48.578;-4.520;2023-10-09T12:50:40;22.40;71.80
75615;DHT22;64199;48.578;-4.520;2023-10-09T12:53:10;22.40;71.80
75615;DHT22;64199;48.578;-4.520;2023-10-09T12:55:40;22.40;71.80
75615;DHT22;64199;48.578;-4.520;2023-10-09T12:58:08;22.50;71.90
75615;DHT22;64199;48.578;-4.520;2023-10-09T13:00:38;22.50;71.80
75615;DHT22;64199;48.578;-4.520;2023-10-09T13:03:12;22.50;71.80
75615;DHT22;64199;48.578;-4.520;2023-10-09T13:05:52;22.50;71.80
75615;DHT22;64199;48.578;-4.520;2023-10-09T13:08:26;22.50;71.80
75615;DHT22;64199;48.578;-4.520;2023-10-09T13:11:05;22.50;71.80
75615;DHT22;64199;48.578;-4.520;2023-10-09T13:13:39;22.50;71.80
75615;DHT22;64199;48.578;-4.520;2023-10-09T13:16:19;22.50;71.80
75615;DHT22;64199;48.578;-4.520;2023-10-09T13:18:55;22.50;71.80
75615;DHT22;64199;48.578;-4.520;2023-10-09T13:21:28;22.60;71.90
75615;DHT22;64199;48.578;-4.520;2023-10-09T13:24:00;22.60;71.80
75615;DHT22;64199;48.578;-4.520;2023-10-09T13:26:27;22.60;71.80
75615;DHT22;64199;48.578;-4.520;2023-10-09T13:28:57;22.60;71.90
75615;DHT22;64199;48.578;-4.520;2023-10-09T13:31:23;22.60;72.00
75615;DHT22;64199;48.578;-4.520;2023-10-09T13:33:55;22.60;71.90
75615;DHT22;64199;48.578;-4.520;2023-10-09T13:36:22;22.60;71.90
75615;DHT22;64199;48.578;-4.520;2023-10-09T13:38:59;22.60;71.90
75615;DHT22;64199;48.578;-4.520;2023-10-09T13:41:45;22.60;71.90
75615;DHT22;64199;48.578;-4.520;2023-10-09T13:44:11;22.70;71.90
75615;DHT22;64199;48.578;-4.520;2023-10-09T13:46:37;22.70;72.00
75615;DHT22;64199;48.578;-4.520;2023-10-09T13:49:10;22.70;72.00
75615;DHT22;64199;48.578;-4.520;2023-10-09T13:51:40;22.70;71.90
75615;DHT22;64199;48.578;-4.520;2023-10-09T13:54:12;22.70;72.00
75615;DHT22;64199;48.578;-4.520;2023-10-09T13:56:47;22.70;71.90
75615;DHT22;64199;48.578;-4.520;2023-10-09T13:59:13;22.80;72.00
75615;DHT22;64199;48.578;-4.520;2023-10-09T14:01:40;22.80;71.90
75615;DHT22;64199;48.578;-4.520;2023-10-09T14:04:13;22.80;71.80
75615;DHT22;64199;48.578;-4.520;2023-10-09T14:06:44;22.80;71.80
75615;DHT22;64199;48.578;-4.520;2023-10-09T14:09:10;22.80;71.80
75615;DHT22;64199;48.578;-4.520;2023-10-09T14:11:55;22.90;71.80
75615;DHT22;64199;48.578;-4.520;2023-10-09T14:14:34;22.90;71.70
75615;DHT22;64199;48.578;-4.520;2023-10-09T14:17:07;22.90;71.70
75615;DHT22;64199;48.578;-4.520;2023-10-09T14:19:43;22.90;71.60
75615;DHT22;64199;48.578;-4.520;2023-10-09T14:22:34;22.90;71.60
75615;DHT22;64199;48.578;-4.520;2023-10-09T14:25:04;23.00;71.70
75615;DHT22;64199;48.578;-4.520;2023-10-09T14:27:38;22.90;71.60
75615;DHT22;64199;48.578;-4.520;2023-10-09T14:30:04;23.00;71.60
75615;DHT22;64199;48.578;-4.520;2023-10-09T14:32:38;23.00;71.60
75615;DHT22;64199;48.578;-4.520;2023-10-09T14:35:13;23.00;71.60
75615;DHT22;64199;48.578;-4.520;2023-10-09T14:37:40;23.00;71.70
75615;DHT22;64199;48.578;-4.520;2023-10-09T14:40:11;23.00;71.60
75615;DHT22;64199;48.578;-4.520;2023-10-09T14:42:39;23.00;71.60
75615;DHT22;64199;48.578;-4.520;2023-10-09T14:45:24;23.00;71.50
75615;DHT22;64199;48.578;-4.520;2023-10-09T14:47:54;23.10;71.50
75615;DHT22;64199;48.578;-4.520;2023-10-09T14:50:32;23.10;71.50
75615;DHT22;64199;48.578;-4.520;2023-10-09T14:52:58;23.10;71.50
75615;DHT22;64199;48.578;-4.520;2023-10-09T14:55:26;23.10;71.40
75615;DHT22;64199;48.578;-4.520;2023-10-09T14:57:57;23.10;71.50
75615;DHT22;64199;48.578;-4.520;2023-10-09T15:00:24;23.10;71.50
75615;DHT22;64199;48.578;-4.520;2023-10-09T15:02:52;23.10;71.50
75615;DHT22;64199;48.578;-4.520;2023-10-09T15:05:18;23.10;71.40
75615;DHT22;64199;48.578;-4.520;2023-10-09T15:07:44;23.10;71.40
75615;DHT22;64199;48.578;-4.520;2023-10-09T15:10:11;23.20;71.40
75615;DHT22;64199;48.578;-4.520;2023-10-09T15:12:41;23.10;71.40
75615;DHT22;64199;48.578;-4.520;2023-10-09T15:15:09;23.20;71.40
75615;DHT22;64199;48.578;-4.520;2023-10-09T15:17:43;23.20;71.40
75615;DHT22;64199;48.578;-4.520;2023-10-09T15:20:12;23.20;71.40
75615;DHT22;64199;48.578;-4.520;2023-10-09T15:22:44;23.20;71.40
75615;DHT22;64199;48.578;-4.520;2023-10-09T15:25:11;23.20;71.30
75615;DHT22;64199;48.578;-4.520;2023-10-09T15:27:45;23.20;71.30
75615;DHT22;64199;48.578;-4.520;2023-10-09T15:30:12;23.20;71.30
75615;DHT22;64199;48.578;-4.520;2023-10-09T15:32:45;23.20;71.20
75615;DHT22;64199;48.578;-4.520;2023-10-09T15:35:11;23.20;71.20
75615;DHT22;64199;48.578;-4.520;2023-10-09T15:37:38;23.20;71.20
75615;DHT22;64199;48.578;-4.520;2023-10-09T15:40:08;23.20;71.20
75615;DHT22;64199;48.578;-4.520;2023-10-09T15:42:46;23.30;71.30
75615;DHT22;64199;48.578;-4.520;2023-10-09T15:45:16;23.20;71.20
75615;DHT22;64199;48.578;-4.520;2023-10-09T15:47:42;23.30;71.20
75615;DHT22;64199;48.578;-4.520;2023-10-09T15:50:08;23.30;71.20
75615;DHT22;64199;48.578;-4.520;2023-10-09T15:52:36;23.30;71.20
75615;DHT22;64199;48.578;-4.520;2023-10-09T15:55:06;23.30;71.20
75615;DHT22;64199;48.578;-4.520;2023-10-09T15:57:42;23.30;71.90
75615;DHT22;64199;48.578;-4.520;2023-10-09T16:00:08;23.30;71.20
75615;DHT22;64199;48.578;-4.520;2023-10-09T16:02:44;23.30;71.10
75615;DHT22;64199;48.578;-4.520;2023-10-09T16:05:11;23.30;71.10
75615;DHT22;64199;48.578;-4.520;2023-10-09T16:07:38;23.30;71.10
75615;DHT22;64199;48.578;-4.520;2023-10-09T16:10:06;23.30;71.10